KDH weather

Kandahar Airport
Kandahar Province, Afghanistan

Public forecast

Using degrees Celsius for public forecast. Weather courtesy of forecast.io.

Current aviation weather report (METAR) for Kandahar Airport

Retrieved 2019/12/09 12:31 UTC (11 minutes ago):

OAKN 091231Z AUTO 00000KT 9999 BKN050 18/06 A3009 RMK AO2 SLP159 WND DATA ESTMD

Aviation forecast (TAF) for Kandahar Airport

Retrieved 2019/12/09 07:12 UTC (5 hours ago):

TAF TAF OAKN 090708Z 0907/1013 VRB06KT 9999 BKN040 QNH3004INS BECMG 0921/0922 VRB06KT 9999 VCSH BKN040 QNH3005INS BECMG 1000/1001 VRB06KT 8000 -SHRA BKN040 QNH3007INS BECMG 1008/1009 VRB06KT 9999 NSW SCT040 QNH2999INS TX18/0911Z TN09/0921Z